Time;durP1;ratioP1;P1;durP2;ratioP2;P2;SDS_P1;SDS_P2;PMS_P1;PMS_P2;Temp;Humidity;BMP_temperature;BMP_pressure;BME280_temperature;BME280_humidity;BME280_pressure;Samples;Min_cycle;Max_cycle;Signal;HPM_P1;HPM_P2
2022/07/06 00:01:54;;;;;;;6.07;3.17;;;;;;;23.13;53.53;99885.97;5083093;28;20518;-33
2022/07/06 00:04:20;;;;;;;6.50;3.40;;;;;;;23.15;53.95;99878.28;5077561;28;20101;-30
2022/07/06 00:06:46;;;;;;;8.95;3.85;;;;;;;23.14;53.53;99886.75;5068524;28;20035;-32
2022/07/06 00:09:11;;;;;;;5.88;3.30;;;;;;;23.02;53.67;99884.56;5068998;28;20032;-31
2022/07/06 00:11:37;;;;;;;6.50;3.42;;;;;;;23.44;53.71;99896.13;5087193;28;20024;-32
2022/07/06 00:14:02;;;;;;;7.15;3.72;;;;;;;23.40;53.49;99893.22;5087518;28;20100;-29
2022/07/06 00:16:28;;;;;;;6.47;3.25;;;;;;;23.35;52.75;99876.19;5069210;28;20043;-31
2022/07/06 00:18:53;;;;;;;6.82;3.53;;;;;;;23.59;53.15;99886.78;5086976;28;20020;-32
2022/07/06 00:21:19;;;;;;;8.25;3.53;;;;;;;23.42;53.90;99901.06;5087143;28;20028;-29
2022/07/06 00:23:45;;;;;;;7.63;3.75;;;;;;;23.24;54.79;99898.19;5085869;28;20028;-29
2022/07/06 00:26:10;;;;;;;7.93;3.88;;;;;;;23.35;55.17;99906.13;5087171;28;20034;-31
2022/07/06 00:28:36;;;;;;;8.05;4.10;;;;;;;22.98;55.69;99887.06;5087138;28;20466;-31
2022/07/06 00:31:01;;;;;;;7.97;3.75;;;;;;;23.04;55.13;99895.94;5086994;28;20099;-31
2022/07/06 00:33:27;;;;;;;7.70;3.88;;;;;;;23.13;54.99;99890.56;5086481;28;20634;-29
2022/07/06 00:35:52;;;;;;;8.90;4.22;;;;;;;23.01;55.58;99881.06;5087202;28;20062;-32
2022/07/06 00:38:18;;;;;;;9.75;4.22;;;;;;;22.84;56.13;99878.97;5086708;28;20032;-31
2022/07/06 00:40:44;;;;;;;7.40;4.00;;;;;;;22.77;56.68;99894.84;5086581;28;20048;-31
2022/07/06 00:43:09;;;;;;;7.07;3.90;;;;;;;22.45;57.20;99888.47;5086888;28;20435;-30
2022/07/06 00:45:35;;;;;;;7.57;4.03;;;;;;;21.82;59.31;99887.16;5086670;28;20115;-29
2022/07/06 00:48:00;;;;;;;7.82;4.43;;;;;;;21.95;58.98;99901.84;5086724;28;20032;-28
2022/07/06 00:50:28;;;;;;;7.60;4.20;;;;;;;21.62;59.93;99906.50;5068600;28;20035;-29
2022/07/06 00:52:59;;;;;;;8.13;4.35;;;;;;;21.53;60.08;99911.78;5085592;28;20028;-32
2022/07/06 00:55:34;;;;;;;8.43;4.13;;;;;;;21.24;60.65;99882.88;5068370;28;20047;-28
2022/07/06 00:58:04;;;;;;;8.93;4.85;;;;;;;21.47;60.03;99883.13;5068825;28;20123;-29
2022/07/06 01:00:30;;;;;;;6.88;3.95;;;;;;;21.62;59.55;99896.44;5068116;28;20032;-31
2022/07/06 01:02:56;;;;;;;8.10;4.00;;;;;;;21.71;59.07;99901.19;5068687;28;20024;-30
2022/07/06 01:05:22;;;;;;;7.93;4.45;;;;;;;21.74;58.86;99914.97;5086462;28;20028;-28
2022/07/06 01:07:49;;;;;;;7.53;3.95;;;;;;;21.89;58.69;99910.41;5068405;28;20553;-28
2022/07/06 01:10:16;;;;;;;10.60;4.13;;;;;;;21.91;58.58;99902.75;5085099;28;20096;-29
2022/07/06 01:12:43;;;;;;;8.07;4.78;;;;;;;21.91;58.44;99881.84;5086832;28;20270;-28
2022/07/06 01:15:14;;;;;;;9.57;4.07;;;;;;;22.02;58.44;99896.81;5067715;28;20036;-29
2022/07/06 01:17:40;;;;;;;7.57;3.95;;;;;;;22.11;57.83;99893.41;5068723;28;20579;-31
2022/07/06 01:20:12;;;;;;;7.25;4.00;;;;;;;22.26;58.18;99899.41;5072134;28;20028;-28
2022/07/06 01:22:38;;;;;;;5.95;4.32;;;;;;;21.80;59.67;99877.69;5072004;28;20550;-30
2022/07/06 01:25:06;;;;;;;10.68;4.18;;;;;;;22.11;59.13;99885.28;5072019;28;20116;-31
2022/07/06 01:27:34;;;;;;;10.27;4.32;;;;;;;22.29;57.31;99867.31;5071467;28;20535;-29
2022/07/06 01:30:00;;;;;;;6.50;4.28;;;;;;;22.44;57.11;99875.97;5090286;28;20418;-34
2022/07/06 01:32:25;;;;;;;8.30;4.40;;;;;;;21.91;59.64;99865.56;5090247;28;20024;-29
2022/07/06 01:34:51;;;;;;;7.03;4.00;;;;;;;21.58;60.67;99854.72;5090194;28;20020;-29
2022/07/06 01:37:16;;;;;;;7.65;4.50;;;;;;;22.20;59.42;99856.31;5090419;28;20058;-30
2022/07/06 01:39:42;;;;;;;5.78;3.75;;;;;;;22.28;58.44;99861.09;5089834;28;20110;-29
2022/07/06 01:42:07;;;;;;;7.22;4.53;;;;;;;22.19;58.16;99841.13;5089679;28;20051;-29
2022/07/06 01:44:33;;;;;;;9.75;4.50;;;;;;;21.72;60.50;99851.22;5071781;28;20024;-29
2022/07/06 01:46:58;;;;;;;11.13;4.60;;;;;;;21.71;60.29;99846.91;5090022;28;20074;-31
2022/07/06 01:49:23;;;;;;;7.78;4.43;;;;;;;22.13;59.03;99834.19;5071278;28;20024;-29
2022/07/06 01:51:49;;;;;;;8.70;4.38;;;;;;;22.29;58.44;99840.16;5071193;28;20044;-28
2022/07/06 01:54:14;;;;;;;9.75;4.20;;;;;;;22.19;58.73;99833.78;5090106;28;20020;-28
2022/07/06 01:56:40;;;;;;;9.40;5.13;;;;;;;21.86;59.93;99838.47;5089404;28;20032;-31
2022/07/06 01:59:05;;;;;;;9.35;4.32;;;;;;;21.76;59.65;99825.09;5089986;28;20024;-33
2022/07/06 02:01:31;;;;;;;8.82;4.57;;;;;;;21.87;59.11;99811.03;5089465;28;20492;-29
2022/07/06 02:03:56;;;;;;;10.05;4.18;;;;;;;21.73;60.49;99828.44;5089758;28;20028;-29
2022/07/06 02:06:21;;;;;;;7.40;4.35;;;;;;;21.63;60.87;99824.78;5089519;28;20024;-29
2022/07/06 02:08:47;;;;;;;10.82;5.20;;;;;;;21.86;60.13;99808.63;5071493;28;20433;-30
2022/07/06 02:11:13;;;;;;;9.50;4.20;;;;;;;21.68;60.25;99810.34;5089116;28;20085;-29
2022/07/06 02:13:38;;;;;;;8.93;4.13;;;;;;;21.61;60.62;99812.63;5089420;28;20120;-28
2022/07/06 02:16:04;;;;;;;7.25;4.20;;;;;;;21.27;62.25;99787.41;5089469;28;20040;-32
2022/07/06 02:18:30;;;;;;;6.80;4.65;;;;;;;21.40;61.29;99799.38;5089276;28;20085;-29
2022/07/06 02:20:56;;;;;;;7.75;4.57;;;;;;;21.20;62.22;99784.25;5089263;28;20036;-33
2022/07/06 02:23:22;;;;;;;9.30;4.65;;;;;;;21.22;62.29;99792.88;5088926;28;20415;-28
2022/07/06 02:25:47;;;;;;;7.30;4.13;;;;;;;21.56;61.58;99791.81;5070514;28;20061;-28
2022/07/06 02:28:13;;;;;;;8.38;4.43;;;;;;;21.56;61.35;99775.53;5088647;28;20028;-29
2022/07/06 02:30:38;;;;;;;7.43;4.53;;;;;;;21.71;61.02;99781.78;5089314;28;20032;-28
2022/07/06 02:33:04;;;;;;;12.40;4.90;;;;;;;21.60;61.40;99792.81;5088788;28;20032;-30
2022/07/06 02:35:29;;;;;;;9.45;4.70;;;;;;;21.41;61.77;99800.19;5088800;28;20105;-30
2022/07/06 02:37:55;;;;;;;8.43;4.75;;;;;;;21.21;62.29;99780.44;5088953;28;20103;-29
2022/07/06 02:40:20;;;;;;;9.25;4.72;;;;;;;21.06;63.11;99794.25;5087324;28;20052;-29
2022/07/06 02:42:46;;;;;;;8.38;4.85;;;;;;;21.08;62.63;99797.47;5089153;28;20499;-31
2022/07/06 02:45:11;;;;;;;9.52;5.60;;;;;;;21.03;62.53;99770.44;5088836;28;20494;-29
2022/07/06 02:47:37;;;;;;;9.05;4.75;;;;;;;21.14;62.51;99790.06;5088609;28;20039;-29
2022/07/06 02:50:04;;;;;;;8.57;4.78;;;;;;;20.87;63.69;99791.56;5088719;28;20052;-31
2022/07/06 02:52:30;;;;;;;9.02;4.60;;;;;;;20.87;62.80;99778.81;5070501;28;20036;-29
2022/07/06 02:54:55;;;;;;;11.02;4.60;;;;;;;21.40;61.41;99793.94;5088400;28;20381;-29
2022/07/06 02:57:21;;;;;;;10.57;4.50;;;;;;;21.61;60.52;99797.13;5088540;28;20040;-30
2022/07/06 02:59:49;;;;;;;9.07;5.35;;;;;;;21.50;60.56;99771.31;5088578;28;20028;-30
2022/07/06 03:02:15;;;;;;;12.48;5.10;;;;;;;21.50;60.50;99792.22;5087195;28;20024;-28
2022/07/06 03:04:41;;;;;;;10.95;5.20;;;;;;;21.70;60.20;99807.31;5070399;28;20416;-28
2022/07/06 03:07:06;;;;;;;9.90;5.28;;;;;;;21.02;63.04;99804.06;5087746;28;20048;-31
2022/07/06 03:09:32;;;;;;;17.63;7.07;;;;;;;20.76;64.01;99796.31;5069791;28;20031;-29
2022/07/06 03:11:58;;;;;;;17.80;6.18;;;;;;;20.97;63.96;99801.44;5070038;28;20028;-29
2022/07/06 03:14:25;;;;;;;9.77;5.30;;;;;;;20.92;63.53;99810.44;5088381;28;20101;-30
2022/07/06 03:16:51;;;;;;;15.15;6.45;;;;;;;21.07;63.06;99799.38;5070028;28;20478;-31
2022/07/06 03:19:16;;;;;;;12.10;5.82;;;;;;;20.95;64.43;99799.03;5086871;28;20104;-28
2022/07/06 03:21:42;;;;;;;38.50;9.38;;;;;;;21.14;64.30;99801.69;5088057;28;20028;-32
2022/07/06 03:24:08;;;;;;;18.55;6.65;;;;;;;21.21;62.89;99812.19;5087954;28;20032;-29
2022/07/06 03:26:33;;;;;;;12.00;6.03;;;;;;;21.27;61.95;99795.53;5088159;28;20082;-33
2022/07/06 03:28:59;;;;;;;16.25;5.78;;;;;;;21.32;61.86;99805.47;5088085;28;20021;-30
2022/07/06 03:31:24;;;;;;;11.55;5.47;;;;;;;21.38;61.87;99811.63;5087846;28;20049;-34
2022/07/06 03:33:51;;;;;;;11.02;6.00;;;;;;;21.44;62.37;99811.28;5087837;28;20028;-30
2022/07/06 03:36:16;;;;;;;17.17;6.50;;;;;;;21.62;62.53;99812.31;5069472;28;20036;-32
2022/07/06 03:38:42;;;;;;;16.77;8.57;;;;;;;21.08;63.73;99816.44;5087598;28;20024;-29
2022/07/06 03:41:07;;;;;;;18.40;8.25;;;;;;;20.92;64.12;99810.44;5087345;28;20484;-32
2022/07/06 03:43:33;;;;;;;12.95;6.80;;;;;;;20.92;63.72;99815.84;5087169;28;20028;-28
2022/07/06 03:45:58;;;;;;;11.63;6.63;;;;;;;21.25;62.72;99797.72;5087598;28;20059;-31
2022/07/06 03:48:24;;;;;;;21.27;7.78;;;;;;;21.37;61.80;99799.16;5088005;28;20448;-28
2022/07/06 03:50:49;;;;;;;14.90;8.13;;;;;;;21.71;61.04;99820.56;5087656;28;20494;-28
2022/07/06 03:53:15;;;;;;;16.15;8.93;;;;;;;21.69;61.73;99811.94;5069283;28;20055;-29
2022/07/06 03:55:40;;;;;;;25.08;13.02;;;;;;;21.70;61.40;99807.31;5087137;28;20024;-30
2022/07/06 03:58:06;;;;;;;30.42;13.52;;;;;;;21.73;61.69;99834.66;5087643;28;20024;-32
2022/07/06 04:00:32;;;;;;;16.13;7.85;;;;;;;21.71;62.43;99814.34;5087859;28;20035;-31
2022/07/06 04:02:57;;;;;;;10.13;7.00;;;;;;;21.75;62.04;99840.59;5086243;28;20093;-29
2022/07/06 04:05:23;;;;;;;12.07;6.35;;;;;;;21.65;62.09;99813.63;5087339;28;20032;-30
2022/07/06 04:07:48;;;;;;;10.15;6.00;;;;;;;21.94;60.80;99813.34;5068893;28;20019;-31
2022/07/06 04:10:15;;;;;;;9.27;5.97;;;;;;;22.03;60.99;99827.84;5086258;28;20111;-30
2022/07/06 04:12:44;;;;;;;11.05;5.72;;;;;;;22.10;60.51;99841.03;5069137;28;20024;-33
2022/07/06 04:15:11;;;;;;;12.00;6.10;;;;;;;22.00;60.55;99833.06;5069168;28;20393;-29
2022/07/06 04:17:53;;;;;;;8.98;5.25;;;;;;;22.14;60.65;99830.38;5068874;28;20032;-29
2022/07/06 04:20:23;;;;;;;9.55;5.57;;;;;;;22.30;61.04;99848.00;5087292;28;20028;-31
2022/07/06 04:22:49;;;;;;;11.95;5.93;;;;;;;22.02;61.51;99842.53;5086609;28;20039;-30
2022/07/06 04:25:15;;;;;;;12.20;6.28;;;;;;;22.24;61.14;99843.78;5069128;28;20028;-30
2022/07/06 04:27:40;;;;;;;12.15;5.53;;;;;;;22.34;59.61;99838.16;5086921;28;20039;-31
2022/07/06 04:30:06;;;;;;;12.90;5.88;;;;;;;22.21;59.76;99833.47;5087432;28;20376;-29
2022/07/06 04:32:32;;;;;;;9.68;5.53;;;;;;;22.46;58.63;99840.34;5087546;28;20040;-31
2022/07/06 04:34:58;;;;;;;10.20;5.25;;;;;;;22.68;57.83;99842.34;5087150;28;20031;-31
2022/07/06 04:37:24;;;;;;;13.65;5.70;;;;;;;22.77;58.03;99845.94;5087410;28;20522;-29
2022/07/06 04:39:49;;;;;;;12.75;5.72;;;;;;;22.87;57.17;99823.94;5087009;28;20040;-29
2022/07/06 04:42:15;;;;;;;11.57;5.32;;;;;;;23.20;57.00;99831.91;5086808;28;20163;-28
2022/07/06 04:44:40;;;;;;;9.02;5.40;;;;;;;23.25;55.91;99848.13;5085465;28;20024;-28
2022/07/06 04:47:06;;;;;;;8.40;5.18;;;;;;;23.41;54.99;99845.03;5087388;28;20112;-29
2022/07/06 04:49:31;;;;;;;8.63;5.65;;;;;;;23.45;55.04;99854.19;5068091;28;20059;-29
2022/07/06 04:51:57;;;;;;;9.15;6.43;;;;;;;23.28;55.82;99852.13;5087308;28;20069;-28
2022/07/06 04:54:23;;;;;;;9.43;5.13;;;;;;;23.32;54.95;99841.44;5090843;28;20434;-29
2022/07/06 04:56:48;;;;;;;8.55;5.43;;;;;;;23.51;55.42;99852.13;5091456;28;20032;-29
2022/07/06 04:59:14;;;;;;;8.90;5.90;;;;;;;23.41;55.02;99853.97;5090975;28;20093;-28
2022/07/06 05:01:40;;;;;;;7.13;5.03;;;;;;;23.28;55.65;99838.53;5072383;28;20028;-28
2022/07/06 05:04:06;;;;;;;14.35;6.00;;;;;;;23.61;55.68;99841.00;5089556;28;20047;-31
2022/07/06 05:06:32;;;;;;;13.25;5.15;;;;;;;23.79;55.00;99858.25;5072461;28;20042;-30
2022/07/06 05:08:59;;;;;;;10.63;4.95;;;;;;;23.79;54.16;99850.09;5089648;28;20032;-34
2022/07/06 05:11:25;;;;;;;9.00;4.97;;;;;;;24.04;53.74;99867.66;5072470;28;20137;-28
2022/07/06 05:13:50;;;;;;;9.95;5.47;;;;;;;24.03;54.26;99850.53;5072522;28;20098;-29
2022/07/06 05:16:16;;;;;;;8.60;5.20;;;;;;;24.36;53.01;99861.06;5090895;28;20031;-28
2022/07/06 05:18:41;;;;;;;9.70;6.10;;;;;;;24.16;55.73;99867.09;5090711;28;20017;-30
2022/07/06 05:21:07;;;;;;;11.57;5.85;;;;;;;24.20;55.55;99873.50;5090622;28;20032;-28
2022/07/06 05:23:32;;;;;;;10.55;5.88;;;;;;;24.35;54.25;99881.25;5089889;28;20039;-28
2022/07/06 05:25:58;;;;;;;8.68;5.93;;;;;;;24.54;54.60;99866.56;5072388;28;20145;-29
2022/07/06 05:28:23;;;;;;;10.27;6.20;;;;;;;24.61;53.99;99878.63;5090392;28;20062;-32
2022/07/06 05:30:49;;;;;;;11.25;6.03;;;;;;;24.50;54.90;99879.22;5088995;28;20020;-31
2022/07/06 05:33:14;;;;;;;11.02;5.95;;;;;;;24.58;53.68;99862.91;5090215;28;20701;-29
2022/07/06 05:35:39;;;;;;;10.93;5.88;;;;;;;24.81;52.89;99860.84;5090250;28;20032;-28
2022/07/06 05:38:05;;;;;;;10.88;5.40;;;;;;;24.93;53.96;99873.06;5089231;28;20023;-32
2022/07/06 05:40:30;;;;;;;11.10;5.20;;;;;;;25.35;52.21;99884.34;5090105;28;20078;-28
2022/07/06 05:42:56;;;;;;;9.50;5.43;;;;;;;25.25;51.35;99874.53;5090291;28;20079;-29
2022/07/06 05:45:22;;;;;;;10.90;6.05;;;;;;;25.35;49.30;99889.78;5089992;28;20478;-30
2022/07/06 05:50:32;;;;;;;11.07;5.35;;;;;;;25.14;50.37;99892.34;5090066;28;20102;-30
2022/07/06 05:53:04;;;;;;;8.07;5.45;;;;;;;24.99;50.50;99894.41;5090098;28;20032;-29
2022/07/06 05:55:29;;;;;;;7.53;5.30;;;;;;;25.15;51.42;99897.47;5089827;28;20031;-30
2022/07/06 05:57:55;;;;;;;10.40;5.88;;;;;;;25.42;51.27;99898.31;5089912;28;20108;-30
2022/07/06 06:00:24;;;;;;;9.00;5.63;;;;;;;25.47;49.02;99881.75;5070877;28;20548;-30
2022/07/06 06:02:49;;;;;;;10.38;4.93;;;;;;;25.26;49.09;99876.94;5071720;28;20122;-31
2022/07/06 06:05:15;;;;;;;8.30;5.43;;;;;;;25.17;49.92;99872.59;5070955;28;20111;-31
2022/07/06 06:07:41;;;;;;;10.75;5.40;;;;;;;25.36;48.07;99880.50;5071366;28;20028;-31
2022/07/06 06:10:09;;;;;;;9.13;4.95;;;;;;;25.48;48.90;99899.75;5071651;28;20038;-29
2022/07/06 06:12:35;;;;;;;8.98;5.70;;;;;;;25.57;50.13;99888.81;5089685;28;20028;-29
2022/07/06 06:15:01;;;;;;;9.57;5.35;;;;;;;25.81;49.41;99901.94;5089638;28;20031;-30
2022/07/06 06:17:27;;;;;;;9.75;4.93;;;;;;;25.82;49.06;99898.06;5071264;28;20031;-28
2022/07/06 06:19:52;;;;;;;8.75;5.68;;;;;;;25.78;49.28;99892.44;5089593;28;20046;-34
2022/07/06 06:22:18;;;;;;;8.13;5.38;;;;;;;26.04;49.37;99906.06;5089505;28;20502;-30
2022/07/06 06:24:44;;;;;;;8.35;5.15;;;;;;;26.28;49.30;99882.84;5089625;28;20089;-30
2022/07/06 06:27:09;;;;;;;10.60;5.90;;;;;;;26.14;49.75;99899.44;5071160;28;20078;-29
2022/07/06 06:29:34;;;;;;;9.50;5.65;;;;;;;26.23;48.45;99902.13;5089197;28;20028;-33
2022/07/06 06:32:00;;;;;;;8.73;5.10;;;;;;;26.27;48.86;99881.22;5089224;28;20032;-32
2022/07/06 06:34:25;;;;;;;9.18;5.72;;;;;;;26.22;48.42;99889.63;5071286;28;20028;-30
2022/07/06 06:36:51;;;;;;;8.15;5.38;;;;;;;26.30;49.47;99901.66;5089478;28;20031;-29
2022/07/06 06:39:16;;;;;;;10.27;5.72;;;;;;;26.66;47.89;99892.94;5088475;28;20032;-37
2022/07/06 06:41:42;;;;;;;9.57;5.57;;;;;;;26.76;46.64;99878.09;5089003;28;20056;-29
2022/07/06 06:44:07;;;;;;;8.18;6.15;;;;;;;26.74;47.38;99883.09;5088880;28;20028;-34
2022/07/06 06:46:33;;;;;;;10.45;6.00;;;;;;;26.57;47.44;99893.00;5089237;28;20038;-30
2022/07/06 06:48:58;;;;;;;16.80;6.03;;;;;;;26.72;49.65;99875.19;5089114;28;20027;-29
2022/07/06 06:51:24;;;;;;;9.70;5.63;;;;;;;26.81;48.83;99889.63;5089025;28;20031;-31
2022/07/06 06:53:49;;;;;;;11.23;6.45;;;;;;;26.71;47.30;99878.28;5089148;28;20031;-28
2022/07/06 06:56:15;;;;;;;8.20;5.95;;;;;;;26.59;49.04;99884.47;5088819;28;20035;-29
2022/07/06 06:58:41;;;;;;;8.18;5.55;;;;;;;26.64;48.19;99885.09;5088596;28;20034;-36
2022/07/06 07:01:06;;;;;;;10.02;6.35;;;;;;;26.77;47.46;99882.44;5088919;28;20054;-30
2022/07/06 07:03:32;;;;;;;10.00;5.88;;;;;;;26.45;48.46;99881.94;5088690;28;20031;-29
2022/07/06 07:05:58;;;;;;;11.02;6.68;;;;;;;26.73;47.88;99887.75;5088944;28;20041;-30
2022/07/06 07:08:23;;;;;;;9.15;6.18;;;;;;;26.80;47.27;99881.75;5088997;28;20115;-29
2022/07/06 07:10:49;;;;;;;10.55;6.40;;;;;;;26.92;47.82;99878.31;5088585;28;20398;-29
2022/07/06 07:13:15;;;;;;;12.30;6.45;;;;;;;27.10;45.61;99882.50;5086972;28;20472;-29
2022/07/06 07:15:40;;;;;;;13.07;5.88;;;;;;;27.36;45.55;99874.09;5087835;28;20572;-33
2022/07/06 07:18:06;;;;;;;9.38;6.25;;;;;;;27.58;45.79;99878.41;5087729;28;20028;-33
2022/07/06 07:20:33;;;;;;;12.52;6.45;;;;;;;27.51;47.12;99883.63;5088569;28;20032;-29
2022/07/06 07:22:59;;;;;;;11.70;6.22;;;;;;;27.81;46.17;99892.50;5086714;28;20123;-29
2022/07/06 07:25:25;;;;;;;11.07;6.68;;;;;;;27.78;45.17;99886.88;5086627;28;20036;-30
2022/07/06 07:27:51;;;;;;;9.75;6.80;;;;;;;27.75;46.44;99887.59;5069723;28;20035;-33
2022/07/06 07:30:16;;;;;;;10.52;6.30;;;;;;;27.73;46.18;99884.38;5088262;28;20024;-32
2022/07/06 07:32:42;;;;;;;9.77;6.65;;;;;;;27.60;45.52;99876.13;5088184;28;20024;-29
2022/07/06 07:35:08;;;;;;;10.38;6.93;;;;;;;27.94;45.62;99874.16;5088124;28;20032;-34
2022/07/06 07:37:34;;;;;;;12.40;6.50;;;;;;;27.97;45.59;99878.97;5069554;28;20038;-30
2022/07/06 07:39:59;;;;;;;8.25;5.85;;;;;;;27.83;44.64;99879.25;5088037;28;20395;-29
2022/07/06 07:42:25;;;;;;;10.65;5.97;;;;;;;27.83;44.05;99865.56;5069311;28;20130;-30
2022/07/06 07:44:51;;;;;;;8.43;5.45;;;;;;;28.19;43.87;99874.19;5086546;28;20731;-29
2022/07/06 07:47:17;;;;;;;7.40;4.55;;;;;;;28.25;42.21;99872.81;5087183;28;20412;-36
2022/07/06 07:49:42;;;;;;;6.68;4.70;;;;;;;28.41;41.05;99876.47;5087278;28;20512;-30
2022/07/06 07:52:08;;;;;;;6.65;4.88;;;;;;;28.32;41.51;99872.22;5087794;28;20103;-32
2022/07/06 07:54:34;;;;;;;7.03;5.30;;;;;;;28.54;43.02;99868.25;5087669;28;20036;-32
2022/07/06 07:56:59;;;;;;;8.98;5.43;;;;;;;28.69;42.03;99875.78;5086126;28;20057;-30
2022/07/06 07:59:25;;;;;;;9.85;5.68;;;;;;;28.99;41.01;99854.34;5087616;28;20031;-29
2022/07/06 08:01:50;;;;;;;11.02;6.15;;;;;;;29.31;42.39;99883.88;5087579;28;20105;-31
2022/07/06 08:04:16;;;;;;;8.60;5.40;;;;;;;29.08;39.80;99881.66;5087514;28;20094;-29
2022/07/06 08:06:42;;;;;;;8.57;6.25;;;;;;;28.73;43.59;99859.41;5052487;28;20032;-34
2022/07/06 08:09:07;;;;;;;8.88;5.60;;;;;;;28.79;42.47;99871.75;5085581;28;20031;-33
2022/07/06 08:11:36;;;;;;;7.90;5.90;;;;;;;28.79;43.16;99880.81;5086935;28;20028;-29
2022/07/06 08:14:03;;;;;;;13.73;5.97;;;;;;;29.02;43.23;99877.56;5069187;28;20081;-29
2022/07/06 08:16:28;;;;;;;9.48;6.43;;;;;;;29.08;41.62;99878.09;5087502;28;20077;-29
2022/07/06 08:18:54;;;;;;;8.30;5.40;;;;;;;28.91;41.16;99876.41;5087409;28;20040;-31
2022/07/06 08:21:19;;;;;;;9.68;6.65;;;;;;;28.88;40.37;99866.16;5087191;28;20025;-31
2022/07/06 08:23:45;;;;;;;9.18;5.78;;;;;;;28.69;42.57;99875.78;5087187;28;20027;-30
2022/07/06 08:26:11;;;;;;;9.07;6.07;;;;;;;28.63;43.33;99860.72;5085461;28;20032;-29
2022/07/06 08:28:36;;;;;;;8.05;5.95;;;;;;;28.98;41.41;99871.94;5087156;28;20055;-29
2022/07/06 08:31:03;;;;;;;9.07;6.05;;;;;;;28.74;40.51;99877.50;5086982;28;20042;-32
2022/07/06 08:33:29;;;;;;;7.60;5.60;;;;;;;28.88;41.15;99882.63;5086955;28;20578;-32
2022/07/06 08:35:54;;;;;;;8.80;5.55;;;;;;;29.23;39.45;99878.19;5087269;28;20032;-32
2022/07/06 08:38:20;;;;;;;9.40;5.82;;;;;;;29.17;39.06;99862.31;5087118;28;20028;-32
2022/07/06 08:40:49;;;;;;;10.15;5.80;;;;;;;29.47;39.76;99853.72;5086910;28;20516;-30
2022/07/06 08:43:16;;;;;;;8.15;5.28;;;;;;;29.78;38.47;99869.47;5069035;28;20043;-29
2022/07/06 08:45:44;;;;;;;9.50;5.57;;;;;;;29.98;40.24;99851.13;5087166;28;20625;-29
2022/07/06 08:48:11;;;;;;;7.15;5.38;;;;;;;29.71;38.66;99853.59;5068660;28;20024;-30
2022/07/06 08:50:37;;;;;;;7.45;5.05;;;;;;;30.14;37.55;99842.84;5068696;28;20035;-29
2022/07/06 08:53:04;;;;;;;8.48;5.28;;;;;;;30.51;37.58;99845.31;5085625;28;20024;-29
2022/07/06 08:55:30;;;;;;;9.18;4.95;;;;;;;31.02;36.52;99850.78;5068337;28;20070;-29
2022/07/06 08:57:56;;;;;;;8.85;4.90;;;;;;;31.15;36.64;99848.66;5086994;28;20031;-36
2022/07/06 09:00:24;;;;;;;8.23;4.82;;;;;;;30.88;35.65;99855.97;5086889;28;20039;-29
2022/07/06 09:02:50;;;;;;;8.35;4.65;;;;;;;30.89;34.65;99860.31;5087071;28;20397;-32
2022/07/06 09:05:17;;;;;;;5.90;4.20;;;;;;;30.84;34.65;99850.38;5068672;28;20128;-29
2022/07/06 09:07:48;;;;;;;7.32;5.25;;;;;;;31.15;34.01;99841.19;5068197;28;20039;-32
2022/07/06 09:10:16;;;;;;;8.35;4.93;;;;;;;31.63;34.35;99855.50;5086152;28;20067;-29
2022/07/06 09:12:42;;;;;;;8.15;5.00;;;;;;;31.24;34.30;99847.28;5068638;28;20027;-29
2022/07/06 09:15:08;;;;;;;9.40;5.20;;;;;;;31.66;33.88;99842.16;5087073;28;20030;-34
2022/07/06 09:17:38;;;;;;;6.30;4.00;;;;;;;31.61;32.16;99855.06;5086478;28;20051;-30
2022/07/06 09:20:08;;;;;;;7.32;4.40;;;;;;;31.32;33.35;99850.16;5086897;28;20378;-34
2022/07/06 09:22:34;;;;;;;7.50;4.65;;;;;;;31.68;34.42;99850.84;5068119;28;20028;-34
2022/07/06 09:25:18;;;;;;;7.07;4.25;;;;;;;32.20;30.45;99849.34;5068646;28;20046;-31
2022/07/06 09:27:49;;;;;;;7.28;4.63;;;;;;;32.42;32.76;99845.75;5086692;28;20428;-29
2022/07/06 09:30:17;;;;;;;11.07;5.03;;;;;;;32.33;30.03;99841.69;5086593;28;20081;-33
2022/07/06 09:32:49;;;;;;;6.15;4.28;;;;;;;32.05;31.32;99853.06;5068146;28;20070;-31
2022/07/06 09:35:28;;;;;;;6.45;3.90;;;;;;;31.94;30.02;99859.19;5086482;28;20487;-29
2022/07/06 09:38:14;;;;;;;8.20;4.32;;;;;;;32.19;29.24;99840.28;5086585;28;20053;-31
2022/07/06 09:40:45;;;;;;;7.03;4.82;;;;;;;32.00;32.27;99832.91;5071512;28;20435;-33
2022/07/06 09:43:18;;;;;;;5.63;4.28;;;;;;;32.03;29.67;99837.69;5072012;28;20047;-29
2022/07/06 09:45:50;;;;;;;7.15;4.45;;;;;;;31.28;32.00;99849.28;5090316;28;20050;-33
2022/07/06 09:48:28;;;;;;;8.35;4.70;;;;;;;31.24;31.95;99839.00;5089736;28;20763;-29
2022/07/06 09:50:56;;;;;;;7.07;4.50;;;;;;;31.44;32.67;99836.25;5071797;28;20036;-31
2022/07/06 09:53:24;;;;;;;9.55;4.93;;;;;;;31.94;31.50;99834.38;5088484;28;20049;-31
2022/07/06 09:55:54;;;;;;;8.18;6.68;;;;;;;32.17;32.76;99817.00;5071357;28;20056;-32
2022/07/06 09:58:22;;;;;;;10.55;7.82;;;;;;;32.27;36.94;99827.41;5071928;28;20028;-32
2022/07/06 10:00:48;;;;;;;;;;;;;;;31.41;36.76;99820.44;5090317;28;20032;-30
2022/07/06 10:03:15;;;;;;;8.52;7.07;;;;;;;31.47;38.07;99805.22;5090071;28;19912;-29
2022/07/06 10:05:43;;;;;;;9.15;6.70;;;;;;;31.56;35.76;99808.50;5071534;28;20070;-38
2022/07/06 10:08:09;;;;;;;8.13;7.10;;;;;;;31.46;36.46;99831.16;5071390;28;20072;-31
2022/07/06 10:10:36;;;;;;;10.38;6.57;;;;;;;31.49;35.81;99813.91;5071389;28;20159;-31
2022/07/06 10:13:03;;;;;;;12.50;7.13;;;;;;;31.73;35.24;99798.16;5071542;28;20028;-29
2022/07/06 10:15:32;;;;;;;10.02;6.53;;;;;;;31.84;35.64;99810.16;5071357;28;20048;-29
2022/07/06 10:18:05;;;;;;;8.85;6.90;;;;;;;31.72;36.31;99804.84;5071275;28;20470;-28
2022/07/06 10:20:34;;;;;;;8.30;6.28;;;;;;;31.58;36.27;99803.44;5071405;28;20064;-31
2022/07/06 10:23:01;;;;;;;9.85;6.95;;;;;;;31.56;36.92;99816.78;5089145;28;20115;-30
2022/07/06 10:25:28;;;;;;;11.38;7.47;;;;;;;31.64;37.12;99815.75;5070395;28;20507;-32
2022/07/06 10:27:55;;;;;;;10.17;8.07;;;;;;;31.72;36.16;99818.63;5070939;28;20028;-31
2022/07/06 10:30:21;;;;;;;10.35;7.95;;;;;;;31.85;37.35;99820.03;5071170;28;20069;-33
2022/07/06 10:32:50;;;;;;;10.18;8.68;;;;;;;32.09;36.99;99815.31;5070858;28;20043;-29
2022/07/06 10:35:18;;;;;;;11.00;8.65;;;;;;;31.83;37.33;99803.06;5070776;28;20656;-32
2022/07/06 10:37:44;;;;;;;10.90;8.80;;;;;;;31.44;38.86;99797.66;5071121;28;20467;-36
2022/07/06 10:42:58;;;;;;;11.45;9.27;;;;;;;31.29;41.03;99802.09;5089217;28;20085;-31
2022/07/06 10:45:27;;;;;;;11.55;9.40;;;;;;;31.32;39.19;99803.31;5070707;28;20039;-32
2022/07/06 10:48:13;;;;;;;12.80;9.10;;;;;;;31.88;38.55;99805.50;5088765;28;20028;-38
2022/07/06 10:50:50;;;;;;;11.90;9.48;;;;;;;32.06;38.50;99796.72;5074478;28;20036;-29
2022/07/06 10:53:23;;;;;;;11.93;8.93;;;;;;;31.82;37.98;99804.22;5070759;28;20024;-30
2022/07/06 10:55:51;;;;;;;17.30;9.18;;;;;;;31.90;39.47;99792.16;5070746;28;20046;-34
2022/07/06 10:58:36;;;;;;;11.80;8.90;;;;;;;32.12;39.82;99803.53;5070325;28;20036;-32
2022/07/06 11:01:02;;;;;;;10.93;9.15;;;;;;;31.67;38.94;99772.88;5070758;28;20028;-31
2022/07/06 11:03:36;;;;;;;11.68;8.80;;;;;;;31.89;38.01;99803.53;5069776;28;20110;-33
2022/07/06 11:06:06;;;;;;;13.88;9.88;;;;;;;31.62;38.84;99790.50;5070251;28;20503;-33
2022/07/06 11:08:45;;;;;;;11.35;9.82;;;;;;;31.85;38.57;99784.19;5088409;28;20044;-35
2022/07/06 11:11:18;;;;;;;13.20;9.70;;;;;;;31.91;38.00;99785.44;5070367;28;20111;-29
2022/07/06 11:13:49;;;;;;;12.55;9.80;;;;;;;32.20;38.19;99795.00;5070164;28;20142;-32
2022/07/06 11:16:16;;;;;;;13.07;10.00;;;;;;;31.38;39.31;99771.56;5070263;28;20084;-29
2022/07/06 11:18:47;;;;;;;14.00;10.50;;;;;;;31.35;40.10;99772.28;5088488;28;20032;-30
2022/07/06 11:21:31;;;;;;;11.63;10.20;;;;;;;31.63;40.69;99772.81;5070010;28;20548;-31
2022/07/06 11:23:58;;;;;;;13.73;10.05;;;;;;;31.27;41.35;99779.63;5061549;28;20032;-30
2022/07/06 11:26:24;;;;;;;13.50;10.50;;;;;;;30.98;40.76;99764.53;5066951;28;20082;-30
2022/07/06 11:28:51;;;;;;;12.20;10.63;;;;;;;30.83;40.47;99760.66;5070016;28;20023;-29
2022/07/06 11:31:17;;;;;;;;;;;;;;;31.35;40.58;99777.81;5070615;28;20059;-33
2022/07/06 11:33:47;;;;;;;11.63;10.43;;;;;;;31.53;40.38;99778.94;5087809;28;19981;-29